createdAt,value
2024-04-19T00:00:50.753Z,100.00
2024-04-19T00:01:52.910Z,100.00
2024-04-19T00:02:55.079Z,100.00
2024-04-19T00:03:58.322Z,100.00
2024-04-19T00:05:00.597Z,100.00
2024-04-19T00:06:03.257Z,100.00
2024-04-19T00:07:08.529Z,100.00
2024-04-19T00:08:15.440Z,100.00
2024-04-19T00:09:17.864Z,100.00
2024-04-19T00:10:20.787Z,100.00
2024-04-19T00:11:23.059Z,100.00
2024-04-19T00:12:25.630Z,100.00
2024-04-19T00:13:27.832Z,100.00
2024-04-19T00:14:30.924Z,100.00
2024-04-19T00:15:33.134Z,100.00
2024-04-19T00:16:36.178Z,100.00
2024-04-19T00:17:38.181Z,100.00
2024-04-19T00:18:40.488Z,100.00
2024-04-19T00:19:42.771Z,100.00
2024-04-19T00:20:45.566Z,100.00
2024-04-19T00:21:47.869Z,100.00
2024-04-19T00:22:50.408Z,100.00
2024-04-19T00:23:52.979Z,100.00
2024-04-19T00:24:55.194Z,100.00
2024-04-19T00:25:57.855Z,100.00
2024-04-19T00:27:12.253Z,100.00
2024-04-19T00:28:21.013Z,100.00
2024-04-19T00:29:23.237Z,100.00
2024-04-19T00:30:25.719Z,100.00
2024-04-19T00:31:30.325Z,100.00
2024-04-19T00:32:32.624Z,100.00
2024-04-19T00:33:36.276Z,100.00
2024-04-19T00:34:39.707Z,100.00
2024-04-19T00:35:43.616Z,100.00
2024-04-19T00:36:45.899Z,100.00
2024-04-19T00:37:48.195Z,100.00
2024-04-19T00:39:08.652Z,100.00
2024-04-19T00:40:11.408Z,100.00
2024-04-19T00:41:13.699Z,100.00
2024-04-19T00:42:16.233Z,100.00
2024-04-19T00:43:18.577Z,100.00
2024-04-19T00:44:20.992Z,100.00
2024-04-19T00:45:35.045Z,100.00
2024-04-19T00:46:37.954Z,100.00
2024-04-19T00:47:43.072Z,100.00
2024-04-19T00:48:47.219Z,100.00
2024-04-19T00:49:49.792Z,100.00
2024-04-19T00:50:58.393Z,100.00
2024-04-19T00:52:04.348Z,100.00
2024-04-19T00:53:07.501Z,100.00
2024-04-19T00:54:09.861Z,100.00
2024-04-19T00:55:12.161Z,100.00
2024-04-19T00:56:14.790Z,100.00
2024-04-19T00:57:17.062Z,100.00
2024-04-19T00:58:20.131Z,100.00
2024-04-19T00:59:23.919Z,100.00
2024-04-19T01:00:26.887Z,100.00
2024-04-19T01:01:29.824Z,100.00
2024-04-19T01:02:34.101Z,100.00
2024-04-19T01:03:38.630Z,100.00
2024-04-19T01:04:41.675Z,100.00
2024-04-19T01:05:43.965Z,100.00
2024-04-19T01:07:01.364Z,100.00
2024-04-19T01:08:03.914Z,100.00
2024-04-19T01:09:06.284Z,100.00
2024-04-19T01:10:09.401Z,100.00
2024-04-19T01:11:12.514Z,100.00
2024-04-19T01:12:15.043Z,100.00
2024-04-19T01:13:17.496Z,100.00
2024-04-19T01:14:19.702Z,100.00
2024-04-19T01:15:23.518Z,100.00
2024-04-19T01:16:25.944Z,100.00
2024-04-19T01:17:28.355Z,100.00
2024-04-19T01:18:30.702Z,100.00
2024-04-19T01:19:32.992Z,100.00
2024-04-19T01:20:35.431Z,100.00
2024-04-19T01:21:38.585Z,100.00
2024-04-19T01:22:43.338Z,100.00
2024-04-19T01:23:46.267Z,100.00
2024-04-19T01:24:52.255Z,100.00
2024-04-19T01:25:55.582Z,100.00
2024-04-19T01:26:57.969Z,100.00
2024-04-19T01:28:00.889Z,100.00
2024-04-19T01:29:03.208Z,100.00
2024-04-19T01:30:07.185Z,100.00
2024-04-19T01:31:09.544Z,100.00
2024-04-19T01:32:11.776Z,100.00
2024-04-19T01:33:15.105Z,100.00
2024-04-19T01:34:19.302Z,100.00
2024-04-19T01:35:21.790Z,100.00
2024-04-19T01:36:23.926Z,100.00
2024-04-19T01:37:26.543Z,100.00
2024-04-19T01:38:28.470Z,100.00
2024-04-19T01:39:31.293Z,100.00
2024-04-19T01:40:33.930Z,100.00
2024-04-19T01:41:36.141Z,100.00
2024-04-19T01:42:38.299Z,100.00
2024-04-19T01:43:42.289Z,100.00
2024-04-19T01:44:44.438Z,100.00
2024-04-19T01:45:46.425Z,100.00
2024-04-19T01:46:48.673Z,100.00
2024-04-19T01:47:50.977Z,100.00
2024-04-19T01:48:53.530Z,100.00
2024-04-19T01:49:55.785Z,100.00
2024-04-19T01:50:58.004Z,100.00
2024-04-19T01:52:00.340Z,100.00
2024-04-19T01:53:02.969Z,100.00
2024-04-19T01:54:05.309Z,100.00
2024-04-19T01:55:07.531Z,100.00
2024-04-19T01:56:10.119Z,100.00
2024-04-19T01:57:15.382Z,100.00
2024-04-19T01:58:17.556Z,100.00
2024-04-19T01:59:19.858Z,100.00
2024-04-19T02:00:22.261Z,100.00
2024-04-19T02:01:24.628Z,100.00
2024-04-19T02:02:28.820Z,100.00
2024-04-19T02:03:31.124Z,100.00
2024-04-19T02:04:34.056Z,100.00
2024-04-19T02:05:36.547Z,100.00
2024-04-19T02:06:38.951Z,100.00
2024-04-19T02:07:43.323Z,100.00
2024-04-19T02:08:45.379Z,100.00
2024-04-19T02:09:47.792Z,100.00
2024-04-19T02:10:50.049Z,100.00
2024-04-19T02:11:52.158Z,100.00
2024-04-19T02:12:54.334Z,100.00
2024-04-19T02:13:56.712Z,100.00
2024-04-19T02:14:59.347Z,100.00
2024-04-19T02:16:01.674Z,100.00
2024-04-19T02:17:04.187Z,100.00
2024-04-19T02:18:06.883Z,100.00
2024-04-19T02:19:09.107Z,100.00
2024-04-19T02:20:11.614Z,100.00
2024-04-19T02:21:14.052Z,100.00
2024-04-19T02:22:16.307Z,100.00
2024-04-19T02:23:37.378Z,100.00
2024-04-19T02:24:39.744Z,100.00
2024-04-19T02:25:43.772Z,100.00
2024-04-19T02:26:47.941Z,100.00
2024-04-19T02:28:09.009Z,100.00
2024-04-19T02:29:29.343Z,100.00
2024-04-19T02:30:50.445Z,100.00
2024-04-19T02:31:52.670Z,100.00
2024-04-19T02:32:54.952Z,100.00
2024-04-19T02:33:57.271Z,100.00
2024-04-19T02:34:59.385Z,100.00
2024-04-19T02:36:02.235Z,100.00
2024-04-19T02:37:04.522Z,100.00
2024-04-19T02:38:06.641Z,100.00
2024-04-19T02:39:09.357Z,100.00
2024-04-19T02:40:11.775Z,100.00
2024-04-19T02:41:13.970Z,100.00
2024-04-19T02:42:16.853Z,100.00
2024-04-19T02:43:28.582Z,100.00
2024-04-19T02:44:36.727Z,100.00
2024-04-19T02:45:47.772Z,100.00
2024-04-19T02:46:45.643Z,100.00
2024-04-19T02:47:47.745Z,100.00
2024-04-19T02:48:51.799Z,100.00
2024-04-19T02:49:54.024Z,100.00
2024-04-19T02:50:57.182Z,100.00
2024-04-19T02:51:59.858Z,100.00
2024-04-19T02:53:02.017Z,100.00
2024-04-19T02:54:04.702Z,100.00
2024-04-19T02:55:07.622Z,100.00
2024-04-19T02:56:10.724Z,100.00
2024-04-19T02:57:12.905Z,100.00
2024-04-19T02:58:15.022Z,100.00
2024-04-19T02:59:17.164Z,100.00
2024-04-19T03:00:19.472Z,100.00
2024-04-19T03:01:22.200Z,100.00
2024-04-19T03:02:24.323Z,100.00
2024-04-19T03:03:26.596Z,100.00
2024-04-19T03:04:28.824Z,100.00
2024-04-19T03:05:31.149Z,100.00
2024-04-19T03:06:33.544Z,100.00
2024-04-19T03:07:35.736Z,100.00
2024-04-19T03:08:38.401Z,100.00
2024-04-19T03:09:40.984Z,100.00
2024-04-19T03:10:43.328Z,100.00
2024-04-19T03:11:45.351Z,100.00
2024-04-19T03:12:47.866Z,100.00
2024-04-19T03:13:50.228Z,100.00
2024-04-19T03:14:52.794Z,100.00
2024-04-19T03:16:04.264Z,100.00
2024-04-19T03:17:18.086Z,100.00
2024-04-19T03:18:20.512Z,100.00
2024-04-19T03:19:23.235Z,100.00
2024-04-19T03:20:26.620Z,100.00
2024-04-19T03:21:28.708Z,100.00
2024-04-19T03:22:30.815Z,100.00
2024-04-19T03:23:32.937Z,100.00
2024-04-19T03:24:37.988Z,100.00
2024-04-19T03:25:39.993Z,100.00
2024-04-19T03:26:43.540Z,100.00
2024-04-19T03:27:45.793Z,100.00
2024-04-19T03:28:50.853Z,100.00
2024-04-19T03:29:56.899Z,100.00
2024-04-19T03:30:59.543Z,100.00
2024-04-19T03:32:02.085Z,100.00
2024-04-19T03:33:04.935Z,100.00
2024-04-19T03:34:07.177Z,100.00
2024-04-19T03:35:09.610Z,100.00
2024-04-19T03:36:12.116Z,100.00
2024-04-19T03:37:14.464Z,100.00
2024-04-19T03:38:17.190Z,100.00
2024-04-19T03:39:19.831Z,100.00
2024-04-19T03:40:22.235Z,100.00
2024-04-19T03:41:24.950Z,100.00
2024-04-19T03:42:27.474Z,100.00
2024-04-19T03:43:31.816Z,100.00
2024-04-19T03:44:53.103Z,100.00
2024-04-19T03:45:55.193Z,100.00
2024-04-19T03:46:57.871Z,100.00
2024-04-19T03:48:00.360Z,100.00
2024-04-19T03:49:02.817Z,100.00
2024-04-19T03:50:06.324Z,100.00
2024-04-19T03:51:09.236Z,100.00
2024-04-19T03:52:11.320Z,100.00
2024-04-19T03:53:13.372Z,100.00
2024-04-19T03:54:15.447Z,100.00
2024-04-19T03:55:17.672Z,100.00
2024-04-19T03:56:20.186Z,100.00
2024-04-19T03:57:22.342Z,100.00
2024-04-19T03:58:25.769Z,100.00
2024-04-19T03:59:28.004Z,100.00
2024-04-19T04:00:32.282Z,100.00
2024-04-19T04:01:36.191Z,100.00
2024-04-19T04:02:38.691Z,100.00
2024-04-19T04:03:41.906Z,100.00
2024-04-19T04:04:45.795Z,100.00
2024-04-19T04:05:52.161Z,100.00
2024-04-19T04:06:54.467Z,100.00
2024-04-19T04:07:56.494Z,100.00
2024-04-19T04:08:58.734Z,100.00
2024-04-19T04:10:01.551Z,100.00
2024-04-19T04:11:03.959Z,100.00
2024-04-19T04:12:06.218Z,100.00
2024-04-19T04:13:08.247Z,100.00
2024-04-19T04:14:10.680Z,100.00
2024-04-19T04:15:13.327Z,100.00
2024-04-19T04:16:16.012Z,100.00
2024-04-19T04:17:18.097Z,100.00
2024-04-19T04:18:20.332Z,100.00
2024-04-19T04:19:22.896Z,100.00
2024-04-19T04:20:25.019Z,100.00
2024-04-19T04:21:27.168Z,100.00
2024-04-19T04:22:29.321Z,100.00
2024-04-19T04:23:32.237Z,100.00
2024-04-19T04:24:35.239Z,100.00
2024-04-19T04:25:37.410Z,100.00
2024-04-19T04:26:39.875Z,100.00
2024-04-19T04:27:42.204Z,100.00
2024-04-19T04:28:44.479Z,100.00
2024-04-19T04:29:46.791Z,100.00
2024-04-19T04:30:50.168Z,100.00
2024-04-19T04:31:52.642Z,100.00
2024-04-19T04:32:55.227Z,100.00
2024-04-19T04:33:57.544Z,100.00
2024-04-19T04:35:00.234Z,100.00
2024-04-19T04:36:02.539Z,100.00
2024-04-19T04:37:04.996Z,100.00
2024-04-19T04:38:07.439Z,100.00
2024-04-19T04:39:10.639Z,100.00
2024-04-19T04:40:13.369Z,100.00
2024-04-19T04:41:16.615Z,100.00
2024-04-19T04:42:19.032Z,100.00
2024-04-19T04:43:21.518Z,100.00
2024-04-19T04:44:24.645Z,100.00
2024-04-19T04:45:26.967Z,100.00
2024-04-19T04:46:29.176Z,100.00
2024-04-19T04:47:34.357Z,100.00
2024-04-19T04:48:36.564Z,100.00
2024-04-19T04:49:39.606Z,100.00
2024-04-19T04:50:41.901Z,100.00
2024-04-19T04:51:43.959Z,100.00
2024-04-19T04:52:46.275Z,100.00
2024-04-19T04:53:48.868Z,100.00
2024-04-19T04:54:51.432Z,100.00
2024-04-19T04:55:53.735Z,100.00
2024-04-19T04:56:56.270Z,100.00
2024-04-19T04:57:59.241Z,100.00
2024-04-19T04:59:01.645Z,100.00
2024-04-19T05:00:05.873Z,100.00
2024-04-19T05:01:08.798Z,100.00
2024-04-19T05:02:11.821Z,100.00
2024-04-19T05:03:14.716Z,100.00
2024-04-19T05:04:17.157Z,100.00
2024-04-19T05:05:19.398Z,100.00
2024-04-19T05:06:21.540Z,100.00
2024-04-19T05:07:25.681Z,100.00
2024-04-19T05:08:28.110Z,100.00
2024-04-19T05:09:30.513Z,100.00
2024-04-19T05:10:33.018Z,100.00
2024-04-19T05:11:35.412Z,100.00
2024-04-19T05:12:37.756Z,100.00
2024-04-19T05:13:39.807Z,100.00
2024-04-19T05:14:41.875Z,100.00
2024-04-19T05:15:44.199Z,100.00
2024-04-19T05:16:46.511Z,100.00
2024-04-19T05:17:49.667Z,100.00
2024-04-19T05:18:53.518Z,100.00
2024-04-19T05:19:55.788Z,100.00
2024-04-19T05:20:57.942Z,100.00
2024-04-19T05:22:00.280Z,100.00
2024-04-19T05:23:02.754Z,100.00
2024-04-19T05:24:06.871Z,100.00
2024-04-19T05:25:09.256Z,100.00
2024-04-19T05:26:11.487Z,100.00
2024-04-19T05:27:13.677Z,100.00
2024-04-19T05:28:16.055Z,100.00
2024-04-19T05:29:18.268Z,100.00
2024-04-19T05:30:20.975Z,100.00
2024-04-19T05:31:23.455Z,100.00
2024-04-19T05:32:25.879Z,100.00
2024-04-19T05:33:29.567Z,100.00
2024-04-19T05:34:35.574Z,100.00
2024-04-19T05:35:36.190Z,100.00
2024-04-19T05:36:38.855Z,100.00
2024-04-19T05:37:41.673Z,100.00
2024-04-19T05:38:43.927Z,100.00
2024-04-19T05:39:46.259Z,100.00
2024-04-19T05:40:49.018Z,100.00
2024-04-19T05:41:51.150Z,100.00
2024-04-19T05:42:54.088Z,100.00
2024-04-19T05:43:56.832Z,100.00
2024-04-19T05:44:58.919Z,100.00
2024-04-19T05:46:01.598Z,100.00
2024-04-19T05:47:03.946Z,100.00
2024-04-19T05:48:07.211Z,100.00
2024-04-19T05:49:09.858Z,100.00
2024-04-19T05:50:12.696Z,100.00
2024-04-19T05:51:14.881Z,100.00
2024-04-19T05:52:17.203Z,100.00
2024-04-19T05:53:19.531Z,100.00
2024-04-19T05:54:21.766Z,100.00
2024-04-19T05:55:26.224Z,100.00
2024-04-19T05:56:29.430Z,100.00
2024-04-19T05:57:31.789Z,100.00
2024-04-19T05:58:34.357Z,100.00
2024-04-19T05:59:36.873Z,100.00
2024-04-19T06:00:39.774Z,100.00
2024-04-19T06:01:43.459Z,100.00
2024-04-19T06:02:47.275Z,100.00
2024-04-19T06:03:50.014Z,100.00
2024-04-19T06:04:52.516Z,100.00
2024-04-19T06:05:54.541Z,100.00
2024-04-19T06:06:56.886Z,100.00
2024-04-19T06:07:59.165Z,100.00
2024-04-19T06:09:01.312Z,100.00
2024-04-19T06:10:05.930Z,100.00
2024-04-19T06:11:08.691Z,100.00
2024-04-19T06:12:11.231Z,100.00
2024-04-19T06:13:13.936Z,100.00
2024-04-19T06:14:16.064Z,100.00
2024-04-19T06:15:19.718Z,100.00
2024-04-19T06:16:22.777Z,100.00
2024-04-19T06:17:25.013Z,100.00
2024-04-19T06:18:27.284Z,100.00
2024-04-19T06:19:29.769Z,100.00
2024-04-19T06:20:32.017Z,100.00
2024-04-19T06:21:34.337Z,100.00
2024-04-19T06:22:36.953Z,100.00
2024-04-19T06:23:39.508Z,100.00
2024-04-19T06:24:41.778Z,100.00
2024-04-19T06:25:44.186Z,100.00
2024-04-19T06:26:46.802Z,100.00
2024-04-19T06:27:49.224Z,100.00
2024-04-19T06:28:51.263Z,100.00
2024-04-19T06:29:53.980Z,100.00
2024-04-19T06:30:56.288Z,100.00
2024-04-19T06:31:58.329Z,100.00
2024-04-19T06:33:00.709Z,100.00
2024-04-19T06:34:05.674Z,100.00
2024-04-19T06:35:09.857Z,100.00
2024-04-19T06:36:12.418Z,100.00
2024-04-19T06:37:14.716Z,100.00
2024-04-19T06:38:16.895Z,100.00
2024-04-19T06:39:23.850Z,100.00
2024-04-19T06:40:26.017Z,100.00
2024-04-19T06:41:30.559Z,100.00
2024-04-19T06:42:32.933Z,100.00
2024-04-19T06:43:35.340Z,100.00
2024-04-19T06:44:37.803Z,100.00
2024-04-19T06:45:40.338Z,100.00
2024-04-19T06:46:43.156Z,100.00
2024-04-19T06:47:46.496Z,100.00
2024-04-19T06:48:49.218Z,100.00
2024-04-19T06:49:51.905Z,100.00
2024-04-19T06:50:54.612Z,100.00
2024-04-19T06:51:57.153Z,100.00
2024-04-19T06:52:59.582Z,100.00
2024-04-19T06:54:02.554Z,100.00
2024-04-19T06:55:05.532Z,100.00
2024-04-19T06:56:08.543Z,100.00
2024-04-19T06:57:10.912Z,100.00
2024-04-19T06:58:13.226Z,100.00
2024-04-19T06:59:15.556Z,100.00
2024-04-19T07:00:30.661Z,100.00
2024-04-19T07:01:23.850Z,100.00
2024-04-19T07:02:26.429Z,100.00
2024-04-19T07:03:29.452Z,100.00
2024-04-19T07:04:32.244Z,100.00
2024-04-19T07:05:34.578Z,100.00
2024-04-19T07:06:41.824Z,100.00
2024-04-19T07:07:41.446Z,100.00
2024-04-19T07:08:46.536Z,99.74
2024-04-19T07:09:50.939Z,99.67
2024-04-19T07:10:53.080Z,99.34
2024-04-19T07:11:55.482Z,98.88
2024-04-19T07:12:57.636Z,98.30
2024-04-19T07:13:59.738Z,97.74
2024-04-19T07:15:01.935Z,98.31
2024-04-19T07:16:04.659Z,98.33
2024-04-19T07:17:07.982Z,97.19
2024-04-19T07:18:10.198Z,97.00
2024-04-19T07:19:12.356Z,97.59
2024-04-19T07:20:14.679Z,96.29
2024-04-19T07:21:18.138Z,95.99
2024-04-19T07:22:20.530Z,95.82
2024-04-19T07:23:23.571Z,94.48
2024-04-19T07:24:25.846Z,94.21
2024-04-19T07:25:28.301Z,94.80
2024-04-19T07:26:31.146Z,94.17
2024-04-19T07:27:39.156Z,95.05
2024-04-19T07:28:37.438Z,94.78
2024-04-19T07:29:40.376Z,95.33
2024-04-19T07:30:43.870Z,95.21
2024-04-19T07:31:46.274Z,94.02
2024-04-19T07:32:48.928Z,94.63
2024-04-19T07:33:51.767Z,95.05
2024-04-19T07:34:54.156Z,94.86
2024-04-19T07:35:56.300Z,94.73
2024-04-19T07:37:01.282Z,95.13
2024-04-19T07:38:04.069Z,95.38
2024-04-19T07:39:07.252Z,96.33
2024-04-19T07:40:10.809Z,95.02
2024-04-19T07:41:14.217Z,94.68
2024-04-19T07:42:18.882Z,94.63
2024-04-19T07:43:21.468Z,94.73
2024-04-19T07:44:23.843Z,94.58
2024-04-19T07:45:26.416Z,94.38
2024-04-19T07:46:28.784Z,93.25
2024-04-19T07:47:31.357Z,93.76
2024-04-19T07:48:34.578Z,93.95
2024-04-19T07:49:36.701Z,93.70
2024-04-19T07:50:40.713Z,92.63
2024-04-19T07:51:43.404Z,93.00
2024-04-19T07:52:48.201Z,93.28
2024-04-19T07:53:50.854Z,92.86
2024-04-19T07:54:53.345Z,91.43
2024-04-19T07:55:55.803Z,91.43
2024-04-19T07:56:58.155Z,91.72
2024-04-19T07:58:00.743Z,92.34
2024-04-19T07:59:03.061Z,92.76
2024-04-19T08:00:08.573Z,92.37
2024-04-19T08:01:13.097Z,92.56
2024-04-19T08:02:17.191Z,91.03
2024-04-19T08:03:20.565Z,91.03
2024-04-19T08:04:25.227Z,91.72
2024-04-19T08:05:27.585Z,91.23
2024-04-19T08:06:30.104Z,92.17
2024-04-19T08:07:39.764Z,90.86
2024-04-19T08:08:36.445Z,91.13
2024-04-19T08:09:38.599Z,92.01
2024-04-19T08:10:41.176Z,91.71
2024-04-19T08:11:43.506Z,92.84
2024-04-19T08:12:46.253Z,92.98
2024-04-19T08:13:50.114Z,93.32
2024-04-19T08:14:52.759Z,93.75
2024-04-19T08:15:55.362Z,94.09
2024-04-19T08:16:58.125Z,93.87
2024-04-19T08:18:00.282Z,93.69
2024-04-19T08:19:02.536Z,93.75
2024-04-19T08:20:06.418Z,94.23
2024-04-19T08:21:08.765Z,94.44
2024-04-19T08:22:12.412Z,94.55
2024-04-19T08:23:15.605Z,95.07
2024-04-19T08:24:19.043Z,93.61
2024-04-19T08:25:23.657Z,93.41
2024-04-19T08:26:26.045Z,93.80
2024-04-19T08:27:28.563Z,94.16
2024-04-19T08:28:30.871Z,93.96
2024-04-19T08:29:35.579Z,92.17
2024-04-19T08:30:37.389Z,92.67
2024-04-19T08:31:41.636Z,92.65
2024-04-19T08:32:43.799Z,91.89
2024-04-19T08:33:46.079Z,91.27
2024-04-19T08:34:49.618Z,91.60
2024-04-19T08:35:56.441Z,91.99
2024-04-19T08:36:58.710Z,92.43
2024-04-19T08:38:01.344Z,92.26
2024-04-19T08:39:03.972Z,91.28
2024-04-19T08:40:14.779Z,91.06
2024-04-19T08:41:20.527Z,90.52
2024-04-19T08:42:25.087Z,90.73
2024-04-19T08:43:30.069Z,90.68
2024-04-19T08:44:34.494Z,91.41
2024-04-19T08:45:37.485Z,92.52
2024-04-19T08:46:41.617Z,92.02
2024-04-19T08:47:46.484Z,90.85
2024-04-19T08:48:51.455Z,91.40
2024-04-19T08:49:55.942Z,92.15
2024-04-19T08:51:00.194Z,92.95
2024-04-19T08:52:20.696Z,93.33
2024-04-19T08:53:15.737Z,92.85
2024-04-19T08:54:15.726Z,92.99
2024-04-19T08:55:19.885Z,92.28
2024-04-19T08:56:24.078Z,92.28
2024-04-19T08:57:27.301Z,92.36
2024-04-19T08:58:30.956Z,93.10
2024-04-19T08:59:33.677Z,93.19
2024-04-19T09:00:36.403Z,93.00
2024-04-19T09:01:38.713Z,92.57
2024-04-19T09:02:41.000Z,91.11
2024-04-19T09:03:43.606Z,90.54
2024-04-19T09:04:45.862Z,90.72
2024-04-19T09:05:48.855Z,90.95
2024-04-19T09:06:51.256Z,91.14
2024-04-19T09:07:53.367Z,91.06
2024-04-19T09:08:56.093Z,90.87
2024-04-19T09:10:03.485Z,90.78
2024-04-19T09:11:11.762Z,90.47
2024-04-19T09:12:14.222Z,90.46
2024-04-19T09:13:16.445Z,90.29
2024-04-19T09:14:18.602Z,90.02
2024-04-19T09:15:20.764Z,89.42
2024-04-19T09:16:24.274Z,89.21
2024-04-19T09:17:29.016Z,88.77
2024-04-19T09:18:31.892Z,88.31
2024-04-19T09:19:35.988Z,87.90
2024-04-19T09:20:45.040Z,86.84
2024-04-19T09:21:47.735Z,84.87
2024-04-19T09:22:50.810Z,83.79
2024-04-19T09:23:53.227Z,83.73
2024-04-19T09:24:56.136Z,83.11
2024-04-19T09:26:00.477Z,81.21
2024-04-19T09:27:14.188Z,81.40
2024-04-19T09:28:12.218Z,82.81
2024-04-19T09:29:16.585Z,82.97
2024-04-19T09:30:19.738Z,81.97
2024-04-19T09:31:21.983Z,82.19
2024-04-19T09:32:24.487Z,81.74
2024-04-19T09:33:27.631Z,81.81
2024-04-19T09:34:30.582Z,81.74
2024-04-19T09:35:33.517Z,82.70
2024-04-19T09:36:50.024Z,82.96
2024-04-19T09:37:53.408Z,84.00
2024-04-19T09:38:57.611Z,84.13
2024-04-19T09:40:00.426Z,83.80
2024-04-19T09:41:05.212Z,83.71
2024-04-19T09:42:10.663Z,84.58
2024-04-19T09:43:16.448Z,85.08
2024-04-19T09:44:22.693Z,83.90
2024-04-19T09:45:25.715Z,82.86
2024-04-19T09:46:30.360Z,83.16
2024-04-19T09:47:36.213Z,83.48
2024-04-19T09:48:43.135Z,83.07
2024-04-19T09:49:47.206Z,83.09
2024-04-19T09:50:50.010Z,82.79
2024-04-19T09:51:52.920Z,82.76
2024-04-19T09:52:58.783Z,82.80
2024-04-19T09:54:04.966Z,82.53
2024-04-19T09:55:17.023Z,82.47
2024-04-19T09:56:25.615Z,83.14
2024-04-19T09:57:30.888Z,81.37
2024-04-19T09:58:35.950Z,80.62
2024-04-19T09:59:40.034Z,80.40
2024-04-19T10:00:44.226Z,80.07
2024-04-19T10:01:47.207Z,79.45
2024-04-19T10:02:50.558Z,78.66
2024-04-19T10:03:55.828Z,78.95
2024-04-19T10:04:59.560Z,77.82
2024-04-19T10:06:05.883Z,77.95
2024-04-19T10:07:11.966Z,77.92
2024-04-19T10:08:16.303Z,78.67
2024-04-19T10:09:21.637Z,78.34
2024-04-19T10:10:24.575Z,78.55
2024-04-19T10:11:27.675Z,78.58
2024-04-19T10:12:32.380Z,78.58
2024-04-19T10:13:35.162Z,76.65
2024-04-19T10:14:37.810Z,76.32
2024-04-19T10:15:40.255Z,76.94
2024-04-19T10:16:43.753Z,76.45
2024-04-19T10:17:46.961Z,76.45
2024-04-19T10:18:50.816Z,76.89
2024-04-19T10:19:55.203Z,77.46
2024-04-19T10:20:57.615Z,77.52
2024-04-19T10:22:03.038Z,77.13
2024-04-19T10:23:05.449Z,74.37
2024-04-19T10:24:17.981Z,73.36
2024-04-19T10:25:24.980Z,73.29
2024-04-19T10:26:27.562Z,72.64
2024-04-19T10:27:30.626Z,71.09
2024-04-19T10:28:33.152Z,70.60
2024-04-19T10:29:35.628Z,71.37
2024-04-19T10:30:41.107Z,72.13
2024-04-19T10:31:47.628Z,70.50
2024-04-19T10:32:52.650Z,70.12
2024-04-19T10:33:55.445Z,71.12
2024-04-19T10:34:58.212Z,71.77
2024-04-19T10:36:02.694Z,72.16
2024-04-19T10:37:05.629Z,72.94
2024-04-19T10:38:08.295Z,73.59
2024-04-19T10:39:10.919Z,74.56
2024-04-19T10:40:15.012Z,74.14
2024-04-19T10:41:18.297Z,75.50
2024-04-19T10:42:22.566Z,76.23
2024-04-19T10:43:24.961Z,77.08
2024-04-19T10:44:28.971Z,77.68
2024-04-19T10:45:31.469Z,78.20
2024-04-19T10:46:33.980Z,78.64
2024-04-19T10:47:37.367Z,78.75
2024-04-19T10:48:41.553Z,78.28
2024-04-19T10:49:44.772Z,77.27
2024-04-19T10:50:47.542Z,75.92
2024-04-19T10:51:51.014Z,76.16
2024-04-19T10:52:53.730Z,75.78
2024-04-19T10:53:56.802Z,76.51
2024-04-19T10:54:59.537Z,75.36
2024-04-19T10:56:02.501Z,75.98
2024-04-19T10:57:05.461Z,75.22
2024-04-19T10:58:07.813Z,74.86
2024-04-19T10:59:10.064Z,74.46
2024-04-19T11:00:15.750Z,74.51
2024-04-19T11:01:18.615Z,74.49
2024-04-19T11:02:22.303Z,74.06
2024-04-19T11:03:25.986Z,74.46
2024-04-19T11:04:29.032Z,74.56
2024-04-19T11:05:31.435Z,73.95
2024-04-19T11:06:34.803Z,71.95
2024-04-19T11:07:38.536Z,70.55
2024-04-19T11:08:44.457Z,70.51
2024-04-19T11:09:48.930Z,70.09
2024-04-19T11:10:52.741Z,68.73
2024-04-19T11:11:56.865Z,67.84
2024-04-19T11:12:59.495Z,65.94
2024-04-19T11:14:01.834Z,66.34
2024-04-19T11:15:05.239Z,65.33
2024-04-19T11:16:08.220Z,63.94
2024-04-19T11:17:10.529Z,65.12
2024-04-19T11:18:12.640Z,64.66
2024-04-19T11:20:20.778Z,63.33
2024-04-19T11:21:23.121Z,63.98
2024-04-19T11:22:26.469Z,64.77
2024-04-19T11:23:29.134Z,65.62
2024-04-19T11:24:34.551Z,66.14
2024-04-19T11:25:38.722Z,65.51
2024-04-19T11:26:41.966Z,66.35
2024-04-19T11:27:44.856Z,66.88
2024-04-19T11:28:51.369Z,66.97
2024-04-19T11:29:53.731Z,67.70
2024-04-19T11:30:56.954Z,68.76
2024-04-19T11:32:05.166Z,68.92
2024-04-19T11:33:10.289Z,70.03
2024-04-19T11:34:13.248Z,69.42
2024-04-19T11:35:18.090Z,69.12
2024-04-19T11:36:20.386Z,68.82
2024-04-19T11:37:22.650Z,68.79
2024-04-19T11:38:25.088Z,68.01
2024-04-19T11:39:27.561Z,69.10
2024-04-19T11:40:31.172Z,67.96
2024-04-19T11:41:34.395Z,66.80
2024-04-19T11:42:36.690Z,64.03
2024-04-19T11:43:38.976Z,64.32
2024-04-19T11:44:42.801Z,65.77
2024-04-19T11:45:45.992Z,65.28
2024-04-19T11:46:50.381Z,62.96
2024-04-19T11:47:53.157Z,62.55
2024-04-19T11:48:59.608Z,62.71
2024-04-19T11:50:02.849Z,62.33
2024-04-19T11:51:05.369Z,62.02
2024-04-19T11:52:09.380Z,61.64
2024-04-19T11:53:11.634Z,62.45
2024-04-19T11:54:18.296Z,62.86
2024-04-19T11:55:22.876Z,62.28
2024-04-19T11:56:25.684Z,59.44
2024-04-19T11:57:27.936Z,59.75
2024-04-19T11:58:30.815Z,59.63
2024-04-19T11:59:35.663Z,59.02
2024-04-19T12:00:38.343Z,59.95
2024-04-19T12:01:40.715Z,59.91
2024-04-19T12:02:43.107Z,58.44
2024-04-19T12:03:45.589Z,56.26
2024-04-19T12:04:48.140Z,55.46
2024-04-19T12:05:51.039Z,55.30
2024-04-19T12:06:53.810Z,56.00
2024-04-19T12:07:56.345Z,55.60
2024-04-19T12:08:58.857Z,55.58
2024-04-19T12:10:01.428Z,55.55
2024-04-19T12:11:04.776Z,56.28
2024-04-19T12:13:58.992Z,56.76
2024-04-19T12:15:12.919Z,56.17
2024-04-19T12:16:05.050Z,55.77
2024-04-19T12:16:39.906Z,55.60
2024-04-19T12:17:33.254Z,54.87
2024-04-19T12:18:36.212Z,54.13
2024-04-19T12:19:39.440Z,53.68
2024-04-19T12:20:50.997Z,52.22
2024-04-19T12:21:47.622Z,52.11
2024-04-19T12:22:57.091Z,52.41
2024-04-19T12:23:56.325Z,53.97
2024-04-19T12:24:59.082Z,52.68
2024-04-19T12:26:02.801Z,52.49
2024-04-19T12:27:07.226Z,53.63
2024-04-19T12:28:09.878Z,54.16
2024-04-19T12:29:12.231Z,54.90
2024-04-19T12:30:15.013Z,54.79
2024-04-19T12:31:17.307Z,54.51
2024-04-19T12:32:19.544Z,55.29
2024-04-19T12:33:22.584Z,54.84
2024-04-19T12:34:24.827Z,54.15
2024-04-19T12:35:28.712Z,53.72
2024-04-19T12:36:31.019Z,53.48
2024-04-19T12:37:33.516Z,53.65
2024-04-19T12:38:36.132Z,52.86
2024-04-19T12:39:38.391Z,53.28
2024-04-19T12:40:43.361Z,52.45
2024-04-19T12:41:45.715Z,52.41
2024-04-19T12:42:48.717Z,52.67
2024-04-19T12:43:51.724Z,51.59
2024-04-19T12:44:54.613Z,51.01
2024-04-19T12:45:58.296Z,51.01
2024-04-19T12:47:00.824Z,50.86
2024-04-19T12:48:07.945Z,49.54
2024-04-19T12:49:12.454Z,49.24
2024-04-19T12:50:15.207Z,48.81
2024-04-19T12:51:19.368Z,47.71
2024-04-19T12:52:24.841Z,48.71
2024-04-19T12:53:27.995Z,49.76
2024-04-19T12:54:30.278Z,49.68
2024-04-19T12:55:35.999Z,49.26
2024-04-19T12:56:40.056Z,50.08
2024-04-19T12:57:42.655Z,51.00
2024-04-19T12:58:45.772Z,51.52
2024-04-19T12:59:48.664Z,51.39
2024-04-19T13:00:51.495Z,51.87
2024-04-19T13:01:53.735Z,51.69
2024-04-19T13:02:56.553Z,49.90
2024-04-19T13:03:59.192Z,49.54
2024-04-19T13:05:02.101Z,49.25
2024-04-19T13:06:05.532Z,49.02
2024-04-19T13:07:07.815Z,48.58
2024-04-19T13:08:10.237Z,49.08
2024-04-19T13:09:15.186Z,48.41
2024-04-19T13:10:19.523Z,50.54
2024-04-19T13:11:21.730Z,49.96
2024-04-19T13:12:24.107Z,49.93
2024-04-19T13:13:26.429Z,49.47
2024-04-19T13:14:28.633Z,48.72
2024-04-19T13:15:30.903Z,48.66
2024-04-19T13:16:33.282Z,48.94
2024-04-19T13:17:37.826Z,49.15
2024-04-19T13:18:40.701Z,49.12
2024-04-19T13:19:42.999Z,48.75
2024-04-19T13:20:45.847Z,49.73
2024-04-19T13:21:48.210Z,48.78
2024-04-19T13:22:50.303Z,48.90
2024-04-19T13:23:52.454Z,48.88
2024-04-19T13:24:54.754Z,48.81